Time;durP1;ratioP1;P1;durP2;ratioP2;P2;SDS_P1;SDS_P2;PMS_P1;PMS_P2;Temp;Humidity;BMP_temperature;BMP_pressure;BME280_temperature;BME280_humidity;BME280_pressure;Samples;Min_cycle;Max_cycle;Signal;HPM_P1;HPM_P2
2022/06/19 00:02:30;;;;;;;;;;;;;;;20.03;71.66;98587.13;8417012;28;20362;-76
2022/06/19 00:06:32;;;;;;;;;;;;;;;19.96;71.60;98583.16;8422068;28;19935;-76
2022/06/19 00:10:34;;;;;;;;;;;;;;;19.91;71.85;98576.31;8404110;28;19967;-76
2022/06/19 00:14:35;;;;;;;;;;;;;;;19.92;71.97;98574.53;8420192;28;19935;-75
2022/06/19 00:18:38;;;;;;;;;;;;;;;19.88;72.52;98573.88;8422145;28;19939;-75
2022/06/19 00:22:40;;;;;;;;;;;;;;;19.86;73.10;98574.91;8419373;28;20431;-76
2022/06/19 00:26:41;;;;;;;;;;;;;;;19.85;73.61;98573.19;8421149;28;20027;-76
2022/06/19 00:30:42;;;;;;;;;;;;;;;19.83;73.61;98578.56;8408253;28;19931;-76
2022/06/19 00:34:44;;;;;;;;;;;;;;;19.80;73.78;98568.19;8415783;28;19998;-76
2022/06/19 00:38:45;;;;;;;;;;;;;;;19.75;73.93;98572.88;8426115;28;19928;-76
2022/06/19 00:42:47;;;;;;;;;;;;;;;19.74;73.94;98557.97;8425552;28;19967;-76
2022/06/19 00:46:59;;;;;;;;;;;;;;;19.78;74.00;98561.31;8408102;28;20030;-76
2022/06/19 00:51:04;;;;;;;;;;;;;;;19.75;74.35;98562.34;8420240;28;19935;-76
2022/06/19 00:55:10;;;;;;;;;;;;;;;19.75;73.86;98557.06;8401541;28;20007;-76
2022/06/19 00:59:14;;;;;;;;;;;;;;;19.76;73.42;98548.22;8396206;28;19935;-76
2022/06/19 01:03:19;;;;;;;;;;;;;;;19.79;73.77;98539.28;8409842;28;20754;-76
2022/06/19 01:07:24;;;;;;;;;;;;;;;19.74;74.09;98538.69;8418698;28;20765;-76
2022/06/19 01:11:28;;;;;;;;;;;;;;;19.73;74.45;98535.19;8422364;28;19938;-76
2022/06/19 01:15:30;;;;;;;;;;;;;;;19.75;74.16;98532.47;8417167;28;20295;-76
2022/06/19 01:19:34;;;;;;;;;;;;;;;19.81;73.61;98525.09;8424864;28;19928;-76
2022/06/19 01:23:51;;;;;;;;;;;;;;;19.98;71.45;98524.16;8401068;28;19928;-76
2022/06/19 01:32:14;;;;;;;;;;;;;;;20.76;66.45;98503.81;8406690;28;20042;-76
2022/06/19 01:36:17;;;;;;;;;;;;;;;21.07;64.75;98508.06;8416813;28;19971;-76
2022/06/19 01:40:22;;;;;;;;;;;;;;;21.26;63.60;98507.81;8407414;28;19928;-76
2022/06/19 01:44:24;;;;;;;;;;;;;;;21.52;62.11;98504.38;8417622;28;19931;-76
2022/06/19 01:48:29;;;;;;;;;;;;;;;21.76;60.73;98507.28;8389061;28;19939;-76
2022/06/19 01:52:31;;;;;;;;;;;;;;;22.05;59.72;98502.78;8400363;28;20576;-76
2022/06/19 01:56:32;;;;;;;;;;;;;;;22.15;59.49;98488.00;8402839;28;20290;-76
2022/06/19 02:00:35;;;;;;;;;;;;;;;22.17;59.05;98493.19;8419196;28;19928;-76
2022/06/19 02:04:43;;;;;;;;;;;;;;;22.34;58.18;98492.06;8401687;28;19944;-76
2022/06/19 02:08:45;;;;;;;;;;;;;;;22.42;57.94;98495.88;8409280;28;19975;-76
2022/06/19 02:12:46;;;;;;;;;;;;;;;22.60;56.92;98491.16;8425390;28;20308;-76
2022/06/19 02:16:48;;;;;;;;;;;;;;;22.69;56.46;98485.25;8422162;28;19972;-76
2022/06/19 02:20:50;;;;;;;;;;;;;;;22.64;56.82;98478.59;8428137;28;19935;-76
2022/06/19 02:24:52;;;;;;;;;;;;;;;22.68;56.57;98474.78;8427722;28;19982;-76
2022/06/19 02:28:53;;;;;;;;;;;;;;;22.74;56.12;98475.19;8406063;28;20411;-76
2022/06/19 02:32:55;;;;;;;;;;;;;;;22.76;55.91;98473.28;8383050;28;20403;-76
2022/06/19 02:36:58;;;;;;;;;;;;;;;22.74;56.61;98469.91;8425796;28;19924;-75
2022/06/19 02:41:05;;;;;;;;;;;;;;;22.82;56.09;98470.25;8420397;28;20019;-75
2022/06/19 02:45:12;;;;;;;;;;;;;;;22.86;56.08;98465.59;8407682;28;19932;-75
2022/06/19 02:49:13;;;;;;;;;;;;;;;23.22;55.12;98475.41;8426146;28;19928;-75
2022/06/19 02:53:20;;;;;;;;;;;;;;;23.31;54.75;98479.19;8411291;28;19928;-75
2022/06/19 02:57:22;;;;;;;;;;;;;;;23.27;55.06;98467.13;8430353;28;20602;-75
2022/06/19 03:01:24;;;;;;;;;;;;;;;23.11;56.49;98468.22;8433202;28;20487;-75
2022/06/19 03:05:26;;;;;;;;;;;;;;;22.97;56.75;98463.03;8423324;28;19942;-76
2022/06/19 03:09:28;;;;;;;;;;;;;;;22.90;56.32;98457.34;8421184;28;20395;-75
2022/06/19 03:13:29;;;;;;;;;;;;;;;22.85;56.55;98451.53;8421987;28;19935;-76
2022/06/19 03:17:30;;;;;;;;;;;;;;;22.84;56.32;98462.22;8422967;28;20339;-75
2022/06/19 03:21:32;;;;;;;;;;;;;;;22.89;56.10;98468.03;8408793;28;19945;-75
2022/06/19 03:25:34;;;;;;;;;;;;;;;22.88;56.55;98472.47;8428831;28;19934;-75
2022/06/19 03:29:35;;;;;;;;;;;;;;;22.83;56.72;98468.47;8413509;28;19955;-76
2022/06/19 03:33:36;;;;;;;;;;;;;;;22.75;57.37;98462.81;8415467;28;19964;-76
2022/06/19 03:37:39;;;;;;;;;;;;;;;22.74;57.63;98471.69;8404705;28;19928;-76
2022/06/19 03:41:40;;;;;;;;;;;;;;;22.74;57.99;98472.53;8400208;28;19959;-76
2022/06/19 03:45:42;;;;;;;;;;;;;;;22.81;57.65;98473.00;8418850;28;19970;-76
2022/06/19 03:49:43;;;;;;;;;;;;;;;23.04;56.92;98474.91;8419165;28;19928;-76
2022/06/19 03:53:45;;;;;;;;;;;;;;;23.20;56.79;98479.97;8410510;28;19938;-76
2022/06/19 03:57:47;;;;;;;;;;;;;;;23.40;56.31;98484.72;8422189;28;19928;-76
2022/06/19 04:01:48;;;;;;;;;;;;;;;23.52;55.75;98475.03;8420898;28;19963;-76
2022/06/19 04:05:50;;;;;;;;;;;;;;;23.67;55.53;98489.84;8420070;28;19978;-76
2022/06/19 04:09:52;;;;;;;;;;;;;;;23.71;55.64;98488.69;8418400;28;19971;-77
2022/06/19 04:13:54;;;;;;;;;;;;;;;23.75;55.67;98494.63;8404674;28;19931;-75
2022/06/19 04:17:55;;;;;;;;;;;;;;;23.79;55.44;98506.69;8420587;28;19932;-77
2022/06/19 04:21:57;;;;;;;;;;;;;;;23.82;56.88;98495.84;8403130;28;19938;-76
2022/06/19 04:25:58;;;;;;;;;;;;;;;23.79;57.03;98510.19;8415732;28;19928;-76
2022/06/19 04:30:01;;;;;;;;;;;;;;;23.84;56.66;98504.53;8402525;28;20077;-77
2022/06/19 04:34:02;;;;;;;;;;;;;;;23.90;57.07;98512.06;8422124;28;19939;-76
2022/06/19 04:38:04;;;;;;;;;;;;;;;24.02;56.18;98519.09;8417356;28;20006;-76
2022/06/19 04:42:07;;;;;;;;;;;;;;;24.17;55.96;98518.94;8415607;28;19931;-76
2022/06/19 04:46:09;;;;;;;;;;;;;;;24.25;57.06;98520.09;8406458;28;19939;-76
2022/06/19 04:50:11;;;;;;;;;;;;;;;24.29;57.85;98518.06;8423647;28;19928;-75
2022/06/19 04:54:12;;;;;;;;;;;;;;;24.35;57.48;98526.41;8415236;28;20019;-76
2022/06/19 04:58:13;;;;;;;;;;;;;;;24.44;58.18;98510.78;8419642;28;20758;-76
2022/06/19 05:02:15;;;;;;;;;;;;;;;24.48;57.81;98515.72;8416285;28;19934;-76
2022/06/19 05:06:16;;;;;;;;;;;;;;;24.68;55.44;98519.53;8387811;28;20015;-75
2022/06/19 05:10:18;;;;;;;;;;;;;;;24.86;56.01;98523.44;8418212;28;19924;-76
2022/06/19 05:14:19;;;;;;;;;;;;;;;24.96;56.76;98511.16;8400292;28;19979;-76
2022/06/19 05:18:21;;;;;;;;;;;;;;;25.14;56.31;98524.00;8413443;28;19928;-75
2022/06/19 05:22:22;;;;;;;;;;;;;;;25.30;54.74;98535.09;8412137;28;20064;-76
2022/06/19 05:26:25;;;;;;;;;;;;;;;25.55;54.29;98534.03;8401563;28;19932;-75
2022/06/19 05:30:27;;;;;;;;;;;;;;;25.78;55.04;98529.56;8420310;28;19970;-75
2022/06/19 05:34:28;;;;;;;;;;;;;;;26.00;53.25;98529.50;8403699;28;20312;-76
2022/06/19 05:38:30;;;;;;;;;;;;;;;26.31;53.02;98529.66;8407190;28;19928;-75
2022/06/19 05:42:31;;;;;;;;;;;;;;;26.58;51.38;98537.22;8414637;28;19928;-76
2022/06/19 05:46:33;;;;;;;;;;;;;;;26.86;50.58;98530.41;8413475;28;19935;-76
2022/06/19 05:50:35;;;;;;;;;;;;;;;27.12;49.28;98541.53;8396275;28;19928;-76
2022/06/19 05:54:36;;;;;;;;;;;;;;;27.44;48.51;98544.06;8418522;28;19938;-76
2022/06/19 05:58:38;;;;;;;;;;;;;;;27.73;48.97;98537.06;8416707;28;19928;-75
2022/06/19 06:02:41;;;;;;;;;;;;;;;27.97;47.17;98540.19;8423159;28;19924;-76
2022/06/19 06:06:42;;;;;;;;;;;;;;;27.92;45.49;98544.25;8400423;28;21108;-76
2022/06/19 06:10:44;;;;;;;;;;;;;;;28.09;44.73;98540.94;8404234;28;19964;-75
2022/06/19 06:14:46;;;;;;;;;;;;;;;28.44;44.15;98539.59;8404334;28;19928;-75
2022/06/19 06:18:47;;;;;;;;;;;;;;;28.75;43.62;98545.63;8400499;28;19928;-76
2022/06/19 06:22:48;;;;;;;;;;;;;;;29.16;42.29;98539.94;8415606;28;20095;-76
2022/06/19 06:26:50;;;;;;;;;;;;;;;29.39;41.93;98553.81;8375998;28;20328;-76
2022/06/19 06:30:51;;;;;;;;;;;;;;;29.39;41.37;98543.09;8422096;28;19928;-76
2022/06/19 06:34:52;;;;;;;;;;;;;;;29.64;41.04;98571.09;8420863;28;19939;-76
2022/06/19 06:38:54;;;;;;;;;;;;;;;29.66;41.55;98560.22;8403692;28;19939;-76
2022/06/19 06:42:55;;;;;;;;;;;;;;;29.70;40.92;98557.09;8425108;28;19978;-76
2022/06/19 06:46:59;;;;;;;;;;;;;;;29.95;41.57;98554.72;8405978;28;20312;-76
2022/06/19 06:51:05;;;;;;;;;;;;;;;29.91;39.70;98572.91;8417554;28;19928;-76
2022/06/19 06:55:06;;;;;;;;;;;;;;;30.21;39.49;98562.91;8411314;28;19928;-76
2022/06/19 06:59:08;;;;;;;;;;;;;;;30.43;39.26;98561.63;8415991;28;19938;-76
2022/06/19 07:03:10;;;;;;;;;;;;;;;30.58;39.31;98550.22;8401269;28;19928;-76
2022/06/19 07:07:11;;;;;;;;;;;;;;;30.58;38.94;98552.91;8419079;28;19939;-76
2022/06/19 07:11:16;;;;;;;;;;;;;;;30.44;38.42;98556.09;8417694;28;19932;-76
2022/06/19 07:15:18;;;;;;;;;;;;;;;30.54;39.25;98550.69;8392394;28;19928;-76
2022/06/19 07:19:19;;;;;;;;;;;;;;;30.52;38.61;98555.31;8424402;28;19982;-77
2022/06/19 07:23:21;;;;;;;;;;;;;;;30.72;38.97;98551.53;8420896;28;20031;-76
2022/06/19 07:27:23;;;;;;;;;;;;;;;30.97;38.15;98556.09;8407360;28;20078;-76
2022/06/19 07:31:24;;;;;;;;;;;;;;;31.20;37.15;98553.75;8401012;28;20803;-76
2022/06/19 07:35:26;;;;;;;;;;;;;;;31.57;37.76;98561.50;8418221;28;19924;-77
2022/06/19 07:39:27;;;;;;;;;;;;;;;31.74;36.62;98556.25;8419778;28;20340;-76
2022/06/19 07:43:29;;;;;;;;;;;;;;;31.74;36.29;98562.47;8406356;28;19959;-76
2022/06/19 07:51:50;;;;;;;;;;;;;;;32.06;36.15;98558.22;8419975;28;20338;-76
2022/06/19 07:55:51;;;;;;;;;;;;;;;32.50;36.43;98541.88;8416356;28;19938;-77
2022/06/19 07:59:53;;;;;;;;;;;;;;;32.73;34.57;98553.66;8403399;28;19951;-76
2022/06/19 08:03:54;;;;;;;;;;;;;;;32.79;34.71;98560.22;8416797;28;20027;-76
2022/06/19 08:07:59;;;;;;;;;;;;;;;33.01;34.28;98567.63;8421466;28;19928;-77
2022/06/19 08:12:01;;;;;;;;;;;;;;;33.03;33.99;98571.81;8422538;28;19928;-76
2022/06/19 08:16:04;;;;;;;;;;;;;;;33.04;34.89;98572.69;8415304;28;20525;-76
2022/06/19 08:20:06;;;;;;;;;;;;;;;33.15;34.79;98563.41;8425262;28;19928;-76
2022/06/19 08:24:07;;;;;;;;;;;;;;;33.05;33.52;98564.44;8428504;28;19928;-77
2022/06/19 08:28:09;;;;;;;;;;;;;;;33.01;33.32;98557.69;8422814;28;19956;-76
2022/06/19 08:32:10;;;;;;;;;;;;;;;32.84;32.10;98571.31;8403019;28;19975;-77
2022/06/19 08:36:12;;;;;;;;;;;;;;;32.95;33.33;98569.16;8427036;28;19924;-76
2022/06/19 08:40:33;;;;;;;;;;;;;;;33.09;31.99;98588.31;8404883;28;19967;-77
2022/06/19 08:44:41;;;;;;;;;;;;;;;32.70;32.39;98584.41;8406694;28;19943;-77
2022/06/19 08:48:53;;;;;;;;;;;;;;;32.88;32.71;98586.13;8401381;28;19928;-77
2022/06/19 08:52:55;;;;;;;;;;;;;;;33.11;32.32;98589.81;8416772;28;19967;-76
2022/06/19 08:57:14;;;;;;;;;;;;;;;33.22;31.91;98585.94;8421432;28;19939;-77
2022/06/19 09:01:23;;;;;;;;;;;;;;;33.21;32.37;98577.00;8417119;28;19939;-77
2022/06/19 09:05:44;;;;;;;;;;;;;;;33.14;32.01;98588.63;8404097;28;19964;-76
2022/06/19 09:10:15;;;;;;;;;;;;;;;33.19;32.43;98580.88;8417196;28;20028;-77
2022/06/19 09:14:20;;;;;;;;;;;;;;;33.35;31.88;98594.34;8408458;28;20454;-77
2022/06/19 09:18:36;;;;;;;;;;;;;;;33.40;32.57;98586.63;8415349;28;19962;-76
2022/06/19 09:22:56;;;;;;;;;;;;;;;33.83;33.07;98587.16;8404322;28;19927;-76
2022/06/19 09:26:59;;;;;;;;;;;;;;;34.02;31.27;98592.16;8419861;28;19982;-76
2022/06/19 09:31:06;;;;;;;;;;;;;;;33.98;30.51;98579.22;8415069;28;20411;-77
2022/06/19 09:35:21;;;;;;;;;;;;;;;34.02;30.35;98586.75;8413672;28;20360;-76
2022/06/19 09:39:23;;;;;;;;;;;;;;;34.13;30.91;98596.31;8414329;28;20417;-77
2022/06/19 09:43:39;;;;;;;;;;;;;;;34.15;30.60;98584.34;8398673;28;19943;-76
2022/06/19 09:47:50;;;;;;;;;;;;;;;34.12;31.65;98594.66;8397177;28;19927;-76
2022/06/19 09:52:15;;;;;;;;;;;;;;;34.11;30.38;98587.56;8388064;28;19928;-76
2022/06/19 09:56:22;;;;;;;;;;;;;;;34.34;30.22;98595.69;8412705;28;19928;-76
2022/06/19 10:00:27;;;;;;;;;;;;;;;34.50;29.87;98576.75;8411086;28;20019;-76
2022/06/19 10:04:54;;;;;;;;;;;;;;;34.64;29.55;98581.34;8409450;28;20019;-76
2022/06/19 10:08:57;;;;;;;;;;;;;;;34.37;29.13;98581.91;8414666;28;19943;-76
2022/06/19 10:13:01;;;;;;;;;;;;;;;34.39;29.88;98577.16;8408283;28;19928;-76
2022/06/19 10:17:12;;;;;;;;;;;;;;;34.30;29.90;98570.13;8417666;28;19928;-76
2022/06/19 10:22:13;;;;;;;;;;;;;;;34.47;29.76;98572.56;8398252;28;19939;-76
2022/06/19 10:25:45;;;;;;;;;;;;;;;34.10;29.77;98578.63;8407026;28;19942;-76
2022/06/19 10:29:59;;;;;;;;;;;;;;;34.31;30.77;98566.41;8414712;28;19959;-76
2022/06/19 10:34:08;;;;;;;;;;;;;;;34.40;31.15;98566.19;8384653;28;20398;-76
2022/06/19 10:38:13;;;;;;;;;;;;;;;34.45;30.52;98565.66;8390528;28;19927;-76
2022/06/19 10:42:14;;;;;;;;;;;;;;;34.45;29.64;98571.03;8412131;28;19927;-76
2022/06/19 10:46:16;;;;;;;;;;;;;;;34.39;29.92;98560.97;8415971;28;19927;-76
2022/06/19 10:50:25;;;;;;;;;;;;;;;34.50;31.90;98556.03;8396477;28;19986;-76
2022/06/19 10:54:40;;;;;;;;;;;;;;;34.80;30.89;98550.72;8407820;28;19963;-75
2022/06/19 10:58:42;;;;;;;;;;;;;;;34.93;30.72;98536.66;8407038;28;20323;-76
2022/06/19 11:07:16;;;;;;;;;;;;;;;35.24;29.39;98539.22;8392831;28;20439;-76
2022/06/19 11:11:20;;;;;;;;;;;;;;;35.20;29.24;98535.22;8406126;28;19932;-76
2022/06/19 11:15:26;;;;;;;;;;;;;;;35.29;29.92;98537.63;8385227;28;19967;-76
2022/06/19 11:19:32;;;;;;;;;;;;;;;35.33;29.71;98538.94;8362261;28;20367;-76
2022/06/19 11:23:48;;;;;;;;;;;;;;;35.33;29.96;98528.13;8415951;28;19931;-75
2022/06/19 11:27:55;;;;;;;;;;;;;;;35.13;28.62;98524.31;8415229;28;19971;-74
2022/06/19 11:32:15;;;;;;;;;;;;;;;34.75;27.81;98512.66;8407155;28;19928;-74
2022/06/19 11:36:37;;;;;;;;;;;;;;;34.78;30.06;98507.75;8386131;28;19959;-75
2022/06/19 11:40:40;;;;;;;;;;;;;;;35.13;29.96;98492.75;8392447;28;19990;-75
2022/06/19 11:44:49;;;;;;;;;;;;;;;35.46;28.97;98505.09;8398163;28;19928;-74
2022/06/19 11:48:51;;;;;;;;;;;;;;;35.45;27.68;98495.31;8395033;28;19955;-74
2022/06/19 11:52:58;;;;;;;;;;;;;;;35.35;29.92;98487.47;8383532;28;19928;-75
2022/06/19 11:57:00;;;;;;;;;;;;;;;35.48;28.92;98474.16;8399183;28;19967;-74
2022/06/19 12:01:15;;;;;;;;;;;;;;;35.60;28.34;98464.56;8386231;28;19935;-75
2022/06/19 12:05:25;;;;;;;;;;;;;;;35.33;28.50;98465.19;8382039;28;19934;-75
2022/06/19 12:09:27;;;;;;;;;;;;;;;35.17;28.23;98451.88;8402043;28;19974;-77
2022/06/19 12:13:30;;;;;;;;;;;;;;;35.17;29.16;98447.31;8386376;28;19928;-77
2022/06/19 12:17:31;;;;;;;;;;;;;;;35.47;28.47;98455.44;8365555;28;20559;-76
2022/06/19 12:21:37;;;;;;;;;;;;;;;35.16;28.70;98450.22;8384244;28;19969;-76
2022/06/19 12:25:44;;;;;;;;;;;;;;;35.51;28.99;98456.72;8398091;28;20422;-76
2022/06/19 12:29:57;;;;;;;;;;;;;;;35.63;28.32;98441.72;8382486;28;20047;-76
2022/06/19 12:34:10;;;;;;;;;;;;;;;35.53;28.62;98442.00;8353801;28;19976;-76
2022/06/19 12:38:13;;;;;;;;;;;;;;;35.66;29.37;98434.06;8358304;28;19963;-74
2022/06/19 12:42:24;;;;;;;;;;;;;;;35.42;27.87;98437.13;8349522;28;20623;-74
2022/06/19 12:46:42;;;;;;;;;;;;;;;35.59;29.37;98437.75;8334530;28;19935;-74
2022/06/19 12:50:55;;;;;;;;;;;;;;;35.54;29.64;98437.44;8358261;28;19936;-74
2022/06/19 12:55:05;;;;;;;;;;;;;;;35.76;28.25;98435.66;8369578;28;20059;-74
2022/06/19 12:59:16;;;;;;;;;;;;;;;35.88;28.15;98423.31;8363744;28;20459;-74
2022/06/19 13:03:32;;;;;;;;;;;;;;;35.49;28.35;98429.91;8387897;28;20518;-74
2022/06/19 13:07:37;;;;;;;;;;;;;;;35.32;28.95;98409.53;8376967;28;19927;-74
2022/06/19 13:11:54;;;;;;;;;;;;;;;35.67;28.74;98413.31;8393772;28;19960;-73
2022/06/19 13:15:57;;;;;;;;;;;;;;;36.01;29.54;98408.09;8397150;28;19928;-74
2022/06/19 13:20:13;;;;;;;;;;;;;;;36.39;28.41;98404.28;8394125;28;19924;-74
2022/06/19 13:24:34;;;;;;;;;;;;;;;36.66;28.66;98399.94;8390460;28;20351;-75
2022/06/19 13:28:51;;;;;;;;;;;;;;;36.79;27.96;98394.59;8404631;28;20059;-74
2022/06/19 13:32:56;;;;;;;;;;;;;;;36.64;26.55;98386.59;8377678;28;19928;-74
2022/06/19 13:37:00;;;;;;;;;;;;;;;36.64;28.12;98389.31;8377449;28;20320;-74
2022/06/19 13:41:02;;;;;;;;;;;;;;;36.62;27.90;98380.53;8385010;28;20544;-74
2022/06/19 13:45:19;;;;;;;;;;;;;;;36.55;26.39;98395.88;8387998;28;19956;-74
2022/06/19 13:49:33;;;;;;;;;;;;;;;36.31;27.19;98395.31;8399711;28;19975;-74
2022/06/19 13:53:40;;;;;;;;;;;;;;;36.22;26.06;98382.06;8392232;28;19928;-75
2022/06/19 13:57:53;;;;;;;;;;;;;;;36.45;25.89;98371.06;8394221;28;19942;-75
2022/06/19 14:02:03;;;;;;;;;;;;;;;36.53;26.31;98379.03;8368620;28;20337;-75
2022/06/19 14:06:05;;;;;;;;;;;;;;;36.55;26.53;98369.69;8387275;28;19952;-74
2022/06/19 14:10:25;;;;;;;;;;;;;;;36.68;26.34;98378.94;8387012;28;19932;-74
2022/06/19 14:14:29;;;;;;;;;;;;;;;36.67;24.82;98383.50;8390395;28;19932;-74
2022/06/19 14:18:30;;;;;;;;;;;;;;;36.29;25.30;98373.00;8366837;28;19928;-77
2022/06/19 14:22:48;;;;;;;;;;;;;;;36.30;26.66;98371.13;8413486;28;19928;-78
2022/06/19 14:27:05;;;;;;;;;;;;;;;36.25;25.63;98355.47;8393826;28;19939;-77
2022/06/19 14:31:09;;;;;;;;;;;;;;;36.17;25.04;98360.19;8398549;28;19932;-77
2022/06/19 14:35:11;;;;;;;;;;;;;;;36.08;25.25;98356.78;8409094;28;19939;-78
2022/06/19 14:39:15;;;;;;;;;;;;;;;36.34;26.28;98358.91;8412055;28;19939;-77
2022/06/19 14:43:20;;;;;;;;;;;;;;;36.66;26.73;98354.78;8409639;28;19932;-77
2022/06/19 14:47:32;;;;;;;;;;;;;;;36.60;25.36;98358.25;8395882;28;19968;-77
2022/06/19 14:52:03;;;;;;;;;;;;;;;36.64;24.87;98350.59;8389524;28;19971;-76
2022/06/19 14:56:22;;;;;;;;;;;;;;;36.37;24.55;98347.69;8391717;28;19939;-77
2022/06/19 15:00:27;;;;;;;;;;;;;;;36.23;24.77;98338.63;8405561;28;20007;-77
2022/06/19 15:04:30;;;;;;;;;;;;;;;36.34;26.21;98334.56;8387800;28;19963;-77
2022/06/19 15:08:37;;;;;;;;;;;;;;;36.43;25.71;98337.94;8422616;28;19928;-77
2022/06/19 15:12:39;;;;;;;;;;;;;;;36.66;25.62;98335.84;8409695;28;19955;-77
2022/06/19 15:16:51;;;;;;;;;;;;;;;36.69;24.60;98332.72;8406723;28;20059;-77
2022/06/19 15:21:13;;;;;;;;;;;;;;;36.78;25.28;98328.81;8414733;28;19928;-77
2022/06/19 15:25:23;;;;;;;;;;;;;;;36.36;24.32;98323.56;8399407;28;20419;-77
2022/06/19 15:29:37;;;;;;;;;;;;;;;36.48;25.07;98330.09;8411815;28;20335;-77
2022/06/19 15:33:44;;;;;;;;;;;;;;;36.52;25.40;98328.66;8403368;28;19928;-77
2022/06/19 15:37:50;;;;;;;;;;;;;;;36.53;24.25;98328.47;8407928;28;20536;-77
2022/06/19 15:42:18;;;;;;;;;;;;;;;36.15;25.04;98324.41;8442480;28;19928;-77
2022/06/19 15:46:20;;;;;;;;;;;;;;;36.24;25.64;98317.81;8401756;28;20232;-77
2022/06/19 15:50:30;;;;;;;;;;;;;;;36.55;26.69;98325.56;8413974;28;19935;-76
2022/06/19 15:54:32;;;;;;;;;;;;;;;36.31;24.94;98311.47;8418941;28;19928;-77
2022/06/19 15:58:39;;;;;;;;;;;;;;;36.37;25.42;98315.25;8436177;28;20018;-76
2022/06/19 16:02:43;;;;;;;;;;;;;;;36.10;25.11;98311.50;8428247;28;19928;-74
2022/06/19 16:06:50;;;;;;;;;;;;;;;36.16;26.00;98309.88;8390829;28;19932;-74
2022/06/19 16:10:54;;;;;;;;;;;;;;;36.27;25.72;98306.63;8405808;28;20102;-75
2022/06/19 16:15:14;;;;;;;;;;;;;;;36.41;26.14;98315.69;8421906;28;19955;-74
2022/06/19 16:19:19;;;;;;;;;;;;;;;36.35;25.77;98311.91;8409553;28;19932;-75
2022/06/19 16:23:22;;;;;;;;;;;;;;;36.41;25.41;98308.41;8425778;28;20655;-75
2022/06/19 16:27:25;;;;;;;;;;;;;;;36.34;25.46;98302.13;8407627;28;20332;-74
2022/06/19 16:31:28;;;;;;;;;;;;;;;36.25;24.96;98305.97;8419291;28;19939;-74
2022/06/19 16:44:15;;;;;;;;;;;;;;;35.57;27.34;98302.88;8389659;28;20015;-76
2022/06/19 16:48:18;;;;;;;;;;;;;;;35.34;28.70;98294.91;8357376;28;19940;-76
2022/06/19 16:52:21;;;;;;;;;;;;;;;35.02;28.16;98295.41;8399777;28;20451;-77
2022/06/19 16:56:28;;;;;;;;;;;;;;;34.78;29.19;98296.50;8373008;28;19929;-77
2022/06/19 17:00:31;;;;;;;;;;;;;;;34.50;28.67;98304.44;8405551;28;20043;-76
2022/06/19 17:04:33;;;;;;;;;;;;;;;34.20;28.41;98298.13;8427707;28;19927;-76
2022/06/19 17:08:43;;;;;;;;;;;;;;;33.98;30.55;98317.88;8417106;28;19929;-77
2022/06/19 17:12:45;;;;;;;;;;;;;;;33.81;32.04;98322.53;8401739;28;19935;-77
2022/06/19 17:16:48;;;;;;;;;;;;;;;33.63;33.63;98329.06;8406303;28;19932;-77
2022/06/19 17:20:49;;;;;;;;;;;;;;;33.43;34.25;98318.94;8401447;28;20321;-77
2022/06/19 17:25:01;;;;;;;;;;;;;;;33.10;34.90;98327.16;8392608;28;20043;-76
2022/06/19 17:29:04;;;;;;;;;;;;;;;32.83;35.21;98336.50;8391951;28;19979;-76
2022/06/19 17:33:26;;;;;;;;;;;;;;;32.51;36.31;98340.13;8394376;28;19928;-77
2022/06/19 17:37:30;;;;;;;;;;;;;;;32.19;36.96;98357.09;8409407;28;19928;-77
2022/06/19 17:41:38;;;;;;;;;;;;;;;32.04;37.87;98358.78;8423934;28;19928;-77
2022/06/19 17:45:44;;;;;;;;;;;;;;;31.88;37.81;98367.66;8407791;28;20403;-77
2022/06/19 17:49:48;;;;;;;;;;;;;;;31.64;38.02;98368.47;8382306;28;20352;-77
2022/06/19 17:53:51;;;;;;;;;;;;;;;31.38;38.15;98381.97;8386006;28;19963;-77
2022/06/19 17:58:00;;;;;;;;;;;;;;;31.20;37.81;98379.41;8391711;28;19932;-77
2022/06/19 18:02:11;;;;;;;;;;;;;;;30.98;38.14;98380.78;8388761;28;19928;-77
2022/06/19 18:06:12;;;;;;;;;;;;;;;30.74;38.47;98377.16;8411059;28;19966;-76
2022/06/19 18:10:28;;;;;;;;;;;;;;;30.54;38.66;98384.53;8411907;28;19983;-76
2022/06/19 18:14:34;;;;;;;;;;;;;;;30.36;39.23;98389.94;8408192;28;19928;-76
2022/06/19 18:18:42;;;;;;;;;;;;;;;30.15;39.84;98389.44;8416940;28;19970;-76
2022/06/19 18:22:44;;;;;;;;;;;;;;;29.97;40.09;98392.09;8425277;28;19928;-77
2022/06/19 18:26:49;;;;;;;;;;;;;;;29.87;40.27;98397.53;8424950;28;19938;-77
2022/06/19 18:30:52;;;;;;;;;;;;;;;29.74;40.61;98403.25;8434071;28;19928;-76
2022/06/19 18:34:56;;;;;;;;;;;;;;;29.58;41.77;98404.91;8438896;28;20047;-76
2022/06/19 18:39:22;;;;;;;;;;;;;;;29.45;41.84;98406.16;8431033;28;19939;-77
2022/06/19 18:43:24;;;;;;;;;;;;;;;29.30;41.29;98409.44;8437750;28;19935;-75
2022/06/19 18:47:29;;;;;;;;;;;;;;;29.14;42.04;98410.91;8418362;28;19935;-76
2022/06/19 18:51:30;;;;;;;;;;;;;;;28.92;42.29;98418.47;8429638;28;19928;-75
2022/06/19 18:55:32;;;;;;;;;;;;;;;28.78;42.88;98420.59;8423705;28;20575;-76
2022/06/19 18:59:33;;;;;;;;;;;;;;;28.64;43.42;98431.72;8393919;28;19978;-76
2022/06/19 19:03:34;;;;;;;;;;;;;;;28.49;44.49;98430.50;8422592;28;19939;-76
2022/06/19 19:07:43;;;;;;;;;;;;;;;28.26;45.20;98444.16;8424193;28;20415;-76
2022/06/19 19:11:45;;;;;;;;;;;;;;;28.13;43.88;98443.56;8414331;28;19985;-77
2022/06/19 19:15:47;;;;;;;;;;;;;;;27.97;43.97;98444.13;8431296;28;19955;-77
2022/06/19 19:19:54;;;;;;;;;;;;;;;27.88;43.65;98446.78;8432806;28;19931;-76
2022/06/19 19:23:55;;;;;;;;;;;;;;;27.77;44.16;98442.41;8428445;28;19927;-77
2022/06/19 19:27:57;;;;;;;;;;;;;;;27.64;44.14;98444.50;8428352;28;19939;-77
2022/06/19 19:32:05;;;;;;;;;;;;;;;27.54;44.85;98440.94;8406550;28;19935;-76
2022/06/19 19:36:07;;;;;;;;;;;;;;;27.36;44.93;98438.09;8399216;28;19956;-77
2022/06/19 19:40:16;;;;;;;;;;;;;;;27.24;45.18;98448.00;8405886;28;19941;-77
2022/06/19 19:44:18;;;;;;;;;;;;;;;27.13;45.07;98455.28;8404256;28;20372;-76
2022/06/19 19:48:21;;;;;;;;;;;;;;;27.00;44.89;98455.47;8407699;28;20416;-76
2022/06/19 19:52:23;;;;;;;;;;;;;;;26.90;44.42;98462.53;8403085;28;19958;-76
2022/06/19 19:56:28;;;;;;;;;;;;;;;26.76;44.36;98469.91;8406726;28;19928;-75
2022/06/19 20:00:30;;;;;;;;;;;;;;;26.59;43.80;98475.84;8396821;28;19959;-76
2022/06/19 20:04:31;;;;;;;;;;;;;;;26.42;44.16;98474.59;8399453;28;19928;-76
2022/06/19 20:12:53;;;;;;;;;;;;;;;26.06;44.14;98474.97;8401827;28;19928;-76
2022/06/19 20:16:55;;;;;;;;;;;;;;;25.90;44.52;98484.19;8401460;28;19985;-76
2022/06/19 20:20:57;;;;;;;;;;;;;;;25.79;45.13;98486.03;8381028;28;19929;-75
2022/06/19 20:25:04;;;;;;;;;;;;;;;25.66;45.64;98480.81;8393853;28;20312;-75
2022/06/19 20:29:12;;;;;;;;;;;;;;;25.51;45.88;98484.75;8386422;28;19958;-75
2022/06/19 20:33:16;;;;;;;;;;;;;;;25.37;46.18;98482.34;8395475;28;19935;-75
2022/06/19 20:37:18;;;;;;;;;;;;;;;25.25;46.32;98492.94;8394937;28;20285;-75
2022/06/19 20:45:45;;;;;;;;;;;;;;;25.09;47.69;98502.25;8371688;28;19928;-75
2022/06/19 20:49:50;;;;;;;;;;;;;;;24.97;47.47;98493.41;8377511;28;19928;-76
2022/06/19 20:53:53;;;;;;;;;;;;;;;24.85;47.94;98494.34;8391898;28;20052;-76
2022/06/19 20:57:55;;;;;;;;;;;;;;;24.76;48.24;98505.66;8368194;28;20287;-75
2022/06/19 21:01:56;;;;;;;;;;;;;;;24.71;48.49;98506.88;8374014;28;19964;-74
2022/06/19 21:05:58;;;;;;;;;;;;;;;24.65;48.53;98501.19;8389575;28;19928;-74
2022/06/19 21:10:02;;;;;;;;;;;;;;;24.57;49.18;98498.25;8381237;28;19932;-74
2022/06/19 21:14:04;;;;;;;;;;;;;;;24.50;49.29;98505.00;8393108;28;19928;-74
2022/06/19 21:18:05;;;;;;;;;;;;;;;24.38;49.57;98494.34;8360962;28;20134;-74
2022/06/19 21:22:07;;;;;;;;;;;;;;;24.33;49.98;98488.53;8406694;28;19938;-74
2022/06/19 21:26:09;;;;;;;;;;;;;;;24.22;49.93;98485.78;8415701;28;19934;-75
2022/06/19 21:30:12;;;;;;;;;;;;;;;24.18;50.27;98481.69;8393457;28;20636;-75
2022/06/19 21:34:17;;;;;;;;;;;;;;;24.13;50.87;98480.34;8411311;28;19939;-75
2022/06/19 21:38:20;;;;;;;;;;;;;;;24.04;51.29;98466.78;8414165;28;19932;-75
2022/06/19 21:42:22;;;;;;;;;;;;;;;23.95;51.62;98464.84;8412116;28;20023;-75
2022/06/19 21:46:25;;;;;;;;;;;;;;;23.79;52.22;98467.75;8407147;28;20632;-76
2022/06/19 21:50:28;;;;;;;;;;;;;;;23.73;52.41;98476.16;8409414;28;20014;-77